Time;durP1;ratioP1;P1;durP2;ratioP2;P2;SDS_P1;SDS_P2;PMS_P1;PMS_P2;Temp;Humidity;BMP_temperature;BMP_pressure;BME280_temperature;BME280_humidity;BME280_pressure;Samples;Min_cycle;Max_cycle;Signal;HPM_P1;HPM_P2
2023/12/07 00:00:00;;;;;;;6.88;4.20;;;;;;;24.04;32.56;99795.94;4993252;28;20494;-42
2023/12/07 00:02:25;;;;;;;6.38;3.83;;;;;;;23.98;32.73;99801.38;4991250;28;20023;-42
2023/12/07 00:04:51;;;;;;;6.18;4.00;;;;;;;24.01;32.64;99800.44;4988009;28;20030;-42
2023/12/07 00:07:16;;;;;;;7.82;3.97;;;;;;;24.00;32.64;99798.16;4989391;28;20562;-42
2023/12/07 00:09:41;;;;;;;5.65;3.50;;;;;;;24.02;32.58;99801.19;4989234;28;20030;-43
2023/12/07 00:12:07;;;;;;;6.22;3.70;;;;;;;23.99;32.71;99807.66;4995448;28;20031;-43
2023/12/07 00:14:32;;;;;;;5.63;3.55;;;;;;;23.98;32.58;99803.41;4987323;28;20025;-44
2023/12/07 00:16:58;;;;;;;6.13;3.55;;;;;;;23.99;32.67;99804.91;4988670;28;20030;-43
2023/12/07 00:19:23;;;;;;;5.82;3.47;;;;;;;23.96;32.63;99803.13;4993211;28;20597;-42
2023/12/07 00:21:48;;;;;;;5.88;3.33;;;;;;;23.96;32.68;99803.91;4992827;28;20015;-42
2023/12/07 00:24:14;;;;;;;6.05;3.35;;;;;;;23.97;32.79;99799.91;4989009;28;20022;-42
2023/12/07 00:26:39;;;;;;;5.60;3.20;;;;;;;23.99;32.74;99800.16;4995635;28;20045;-41
2023/12/07 00:29:04;;;;;;;5.85;3.50;;;;;;;23.99;32.65;99810.41;4988639;28;20022;-42
2023/12/07 00:31:30;;;;;;;5.95;3.28;;;;;;;24.01;32.71;99816.22;4985874;28;20417;-42
2023/12/07 00:33:55;;;;;;;5.50;3.15;;;;;;;23.99;32.66;99815.94;4994521;28;20018;-42
2023/12/07 00:36:21;;;;;;;5.35;2.97;;;;;;;23.98;32.66;99808.94;4995108;28;20536;-41
2023/12/07 00:38:46;;;;;;;5.40;3.00;;;;;;;23.96;32.57;99819.69;4993676;28;20027;-41
2023/12/07 00:41:11;;;;;;;5.75;3.33;;;;;;;23.97;32.62;99816.44;4994028;28;20029;-42
2023/12/07 00:43:37;;;;;;;5.43;3.03;;;;;;;23.98;32.54;99814.44;4989646;28;20060;-42
2023/12/07 00:46:02;;;;;;;6.05;3.17;;;;;;;23.97;32.53;99821.19;4993498;28;20017;-41
2023/12/07 00:48:27;;;;;;;5.97;3.22;;;;;;;23.96;32.66;99809.41;4997533;28;20038;-42
2023/12/07 00:50:53;;;;;;;4.95;2.90;;;;;;;23.97;32.52;99816.44;4990513;28;20026;-41
2023/12/07 00:53:18;;;;;;;5.53;3.17;;;;;;;23.98;32.64;99820.69;4984891;28;20123;-41
2023/12/07 00:55:43;;;;;;;5.47;3.00;;;;;;;23.98;32.56;99823.44;4991696;28;20026;-41
2023/12/07 00:58:09;;;;;;;5.43;3.05;;;;;;;23.96;32.66;99817.69;5002234;28;20388;-42
2023/12/07 01:00:34;;;;;;;5.45;3.00;;;;;;;23.96;32.52;99827.94;4992997;28;20035;-45
2023/12/07 01:03:00;;;;;;;5.38;2.90;;;;;;;23.95;32.67;99826.44;4997534;28;20033;-43
2023/12/07 01:05:25;;;;;;;4.90;2.58;;;;;;;23.95;32.48;99815.41;4991506;28;20120;-44
2023/12/07 01:07:51;;;;;;;5.00;2.75;;;;;;;23.95;32.55;99815.41;4992002;28;20026;-43
2023/12/07 01:10:16;;;;;;;4.85;2.65;;;;;;;23.96;32.53;99822.44;4999031;28;20028;-42
2023/12/07 01:12:41;;;;;;;5.10;2.90;;;;;;;23.94;32.53;99819.41;4999212;28;20026;-43
2023/12/07 01:15:07;;;;;;;4.72;2.83;;;;;;;23.95;32.59;99826.44;5002365;28;20053;-43
2023/12/07 01:17:33;;;;;;;5.32;2.78;;;;;;;23.94;32.62;99831.19;4997015;28;20072;-43
2023/12/07 01:19:58;;;;;;;5.45;2.80;;;;;;;23.92;32.63;99828.16;4996062;28;20030;-42
2023/12/07 01:22:23;;;;;;;4.88;2.58;;;;;;;23.92;32.61;99830.16;4995169;28;20498;-42
2023/12/07 01:24:49;;;;;;;5.00;2.70;;;;;;;23.93;32.84;99826.91;4992157;28;20089;-44
2023/12/07 01:27:14;;;;;;;5.28;2.90;;;;;;;23.94;32.46;99828.44;4998013;28;20032;-42
2023/12/07 01:29:40;;;;;;;4.95;2.67;;;;;;;23.92;32.63;99827.38;4990187;28;20041;-42
2023/12/07 01:32:05;;;;;;;4.97;2.47;;;;;;;23.91;32.63;99829.38;4987456;28;20037;-42
2023/12/07 01:34:32;;;;;;;4.70;2.55;;;;;;;23.93;32.59;99832.44;4993621;28;20017;-42
2023/12/07 01:36:57;;;;;;;5.03;2.70;;;;;;;23.95;32.23;99826.44;4994035;28;20037;-42
2023/12/07 01:39:23;;;;;;;4.55;2.60;;;;;;;23.93;32.53;99821.41;4995485;28;20891;-42
2023/12/07 01:41:49;;;;;;;5.00;2.70;;;;;;;23.90;32.54;99825.13;4993299;28;20030;-42
2023/12/07 01:44:14;;;;;;;4.57;2.47;;;;;;;23.90;32.57;99827.88;4989050;28;20035;-43
2023/12/07 01:46:39;;;;;;;4.90;2.50;;;;;;;23.88;32.56;99832.34;4993588;28;20389;-43
2023/12/07 01:49:05;;;;;;;4.90;2.60;;;;;;;23.87;32.57;99822.56;4997922;28;20038;-43
2023/12/07 01:51:30;;;;;;;4.68;2.50;;;;;;;23.87;32.58;99826.06;4982572;28;20014;-44
2023/12/07 01:53:56;;;;;;;4.80;2.53;;;;;;;23.85;32.37;99825.78;4990813;28;20022;-43
2023/12/07 01:56:23;;;;;;;4.60;2.40;;;;;;;23.88;32.58;99826.84;4989626;28;20382;-42
2023/12/07 01:58:48;;;;;;;4.68;2.35;;;;;;;23.90;32.46;99818.84;4974314;28;20022;-41
2023/12/07 02:01:13;;;;;;;4.60;2.60;;;;;;;23.87;32.52;99823.31;4997164;28;20026;-43
2023/12/07 02:03:39;;;;;;;4.78;2.38;;;;;;;23.88;32.55;99813.06;4999751;28;20022;-42
2023/12/07 02:06:05;;;;;;;4.88;2.13;;;;;;;23.88;32.50;99816.56;4993806;28;20505;-43
2023/12/07 02:08:30;;;;;;;4.97;2.55;;;;;;;23.89;32.50;99823.59;4985708;28;20386;-42
2023/12/07 02:10:55;;;;;;;4.65;2.42;;;;;;;23.86;32.48;99827.31;4992385;28;20022;-42
2023/12/07 02:13:21;;;;;;;4.32;2.15;;;;;;;23.87;32.56;99819.81;4992457;28;20072;-44
2023/12/07 02:15:46;;;;;;;4.25;2.22;;;;;;;23.84;32.53;99820.75;4997716;28;20026;-42
2023/12/07 02:18:16;;;;;;;4.13;2.08;;;;;;;23.87;32.43;99830.81;4993050;28;20023;-43
2023/12/07 02:21:00;;;;;;;4.50;2.20;;;;;;;23.86;32.33;99829.31;4993754;28;20118;-43
2023/12/07 02:23:25;;;;;;;4.35;2.20;;;;;;;23.87;32.56;99823.31;4991725;28;20022;-44
2023/12/07 02:25:54;;;;;;;4.40;2.10;;;;;;;23.85;32.61;99825.78;4992329;28;20109;-44
2023/12/07 02:28:19;;;;;;;4.30;2.28;;;;;;;23.85;32.59;99822.28;4996831;28;20026;-43
2023/12/07 02:30:45;;;;;;;4.63;2.20;;;;;;;23.83;32.64;99822.75;4993378;28;20038;-45
2023/12/07 02:33:10;;;;;;;4.47;2.40;;;;;;;23.84;32.59;99824.28;4989279;28;20494;-43
2023/12/07 02:35:37;;;;;;;3.95;1.92;;;;;;;23.84;32.55;99821.53;4988888;28;20033;-44
2023/12/07 02:38:02;;;;;;;4.30;2.20;;;;;;;23.82;32.47;99823.22;4995085;28;20397;-46
2023/12/07 02:40:28;;;;;;;4.32;2.10;;;;;;;23.83;32.54;99836.53;4994886;28;20018;-44
2023/12/07 02:42:53;;;;;;;4.50;2.40;;;;;;;23.84;32.52;99831.78;4978136;28;20062;-42
2023/12/07 02:45:19;;;;;;;4.10;2.03;;;;;;;23.83;32.47;99830.28;4989157;28;20033;-42
2023/12/07 02:47:45;;;;;;;4.07;1.90;;;;;;;23.83;32.50;99830.28;4990363;28;20709;-43
2023/12/07 02:50:10;;;;;;;4.00;2.00;;;;;;;23.85;32.55;99830.56;4993693;28;20487;-42
2023/12/07 02:52:35;;;;;;;4.07;2.10;;;;;;;23.85;32.45;99833.31;4993399;28;20033;-42
2023/12/07 02:55:02;;;;;;;3.97;1.80;;;;;;;23.85;32.59;99827.78;4994329;28;20027;-42
2023/12/07 02:57:27;;;;;;;4.13;2.05;;;;;;;23.82;32.43;99823.22;4989756;28;20034;-42
2023/12/07 02:59:53;;;;;;;4.03;1.95;;;;;;;23.81;32.64;99832.75;4989690;28;20228;-42
2023/12/07 03:02:19;;;;;;;4.60;2.00;;;;;;;23.81;32.65;99830.00;4996043;28;20018;-42
2023/12/07 03:04:44;;;;;;;3.90;1.90;;;;;;;23.85;32.63;99833.31;4993623;28;20118;-42
2023/12/07 03:07:09;;;;;;;3.92;1.90;;;;;;;23.81;32.64;99833.50;4997440;28;20022;-43
2023/12/07 03:09:35;;;;;;;3.72;1.88;;;;;;;23.81;32.67;99830.75;4989240;28;20030;-43
2023/12/07 03:12:00;;;;;;;3.85;1.80;;;;;;;23.83;32.67;99835.78;4987821;28;20352;-42
2023/12/07 03:14:25;;;;;;;3.65;1.80;;;;;;;23.83;32.60;99835.78;4991929;28;20026;-45
2023/12/07 03:16:51;;;;;;;3.92;1.77;;;;;;;23.84;32.59;99840.06;5000744;28;20032;-44
2023/12/07 03:19:16;;;;;;;3.95;1.80;;;;;;;23.85;32.57;99834.06;4999024;28;20027;-42
2023/12/07 03:21:42;;;;;;;4.07;1.98;;;;;;;23.84;32.57;99835.31;4990878;28;20659;-42
2023/12/07 03:24:08;;;;;;;4.63;2.00;;;;;;;23.87;32.52;99836.34;4991521;28;20030;-42
2023/12/07 03:26:33;;;;;;;3.75;1.85;;;;;;;23.87;32.56;99836.34;4996463;28;20547;-43
2023/12/07 03:28:59;;;;;;;3.95;1.90;;;;;;;23.84;32.68;99842.81;5000808;28;20466;-42
2023/12/07 03:31:24;;;;;;;3.67;1.75;;;;;;;23.88;32.44;99841.38;5000473;28;20022;-43
2023/12/07 03:33:49;;;;;;;3.88;2.00;;;;;;;23.91;32.48;99836.91;4986221;28;20080;-42
2023/12/07 03:36:15;;;;;;;4.25;1.80;;;;;;;23.88;32.32;99835.09;4991006;28;20029;-42
2023/12/07 03:38:40;;;;;;;3.67;1.70;;;;;;;23.90;32.51;99836.16;5000743;28;20371;-42
2023/12/07 03:41:06;;;;;;;3.58;1.63;;;;;;;23.90;32.57;99846.41;4988621;28;20030;-41
2023/12/07 03:43:31;;;;;;;3.58;1.75;;;;;;;23.91;32.60;99832.16;4992663;28;20020;-42
2023/12/07 03:45:56;;;;;;;3.50;1.70;;;;;;;23.91;32.63;99831.38;4986312;28;20038;-42
2023/12/07 03:48:22;;;;;;;3.25;1.70;;;;;;;23.93;32.59;99831.66;4990304;28;20532;-42
2023/12/07 03:50:47;;;;;;;3.63;1.70;;;;;;;23.93;32.50;99834.44;4991479;28;20030;-43
2023/12/07 03:53:12;;;;;;;3.50;1.60;;;;;;;23.95;32.54;99831.94;4996560;28;20032;-43
2023/12/07 03:55:38;;;;;;;3.38;1.50;;;;;;;23.95;32.48;99829.19;4989470;28;20026;-42
2023/12/07 03:58:04;;;;;;;3.50;1.50;;;;;;;23.98;32.51;99833.75;4984203;28;20470;-43
2023/12/07 04:00:30;;;;;;;3.40;1.50;;;;;;;24.00;32.46;99839.50;4983775;28;20034;-42
2023/12/07 04:02:55;;;;;;;3.22;1.50;;;;;;;24.00;32.63;99832.00;4988784;28;20909;-43
2023/12/07 04:05:20;;;;;;;3.67;1.77;;;;;;;24.02;32.36;99834.28;4987452;28;20026;-42
2023/12/07 04:07:46;;;;;;;3.70;1.70;;;;;;;24.05;32.42;99836.06;4991388;28;20032;-42
2023/12/07 04:10:11;;;;;;;3.38;1.60;;;;;;;24.08;32.45;99835.13;4991600;28;20407;-43
2023/12/07 04:12:37;;;;;;;3.67;1.70;;;;;;;24.10;32.40;99838.16;4987461;28;20026;-42
2023/12/07 04:15:02;;;;;;;3.75;1.70;;;;;;;24.12;32.41;99835.66;4989298;28;20022;-43
2023/12/07 04:17:28;;;;;;;3.17;1.50;;;;;;;24.14;32.64;99837.94;4992383;28;20065;-42
2023/12/07 04:19:53;;;;;;;3.53;1.70;;;;;;;24.14;32.38;99835.19;4991901;28;20488;-43
2023/12/07 04:22:18;;;;;;;3.13;1.40;;;;;;;24.16;32.51;99832.72;4991161;28;20023;-42
2023/12/07 04:24:44;;;;;;;3.45;1.77;;;;;;;24.19;32.45;99835.22;4987787;28;20032;-43
2023/12/07 04:27:10;;;;;;;3.83;1.70;;;;;;;24.16;32.46;99836.22;4988537;28;20467;-43
2023/12/07 04:29:35;;;;;;;3.20;1.70;;;;;;;24.14;32.50;99838.69;4991071;28;20168;-43
2023/12/07 04:32:02;;;;;;;3.22;1.58;;;;;;;24.04;32.55;99837.31;4989250;28;20033;-42
2023/12/07 04:34:27;;;;;;;3.72;1.70;;;;;;;24.01;32.32;99833.50;4992507;28;20402;-42
2023/12/07 04:36:52;;;;;;;3.97;1.70;;;;;;;23.99;32.25;99835.22;4986397;28;20122;-42
2023/12/07 04:39:18;;;;;;;6.45;1.60;;;;;;;24.01;32.08;99827.25;4988659;28;20030;-41
2023/12/07 04:41:43;;;;;;;3.20;1.50;;;;;;;24.00;32.29;99820.22;4990163;28;20084;-42
2023/12/07 04:44:08;;;;;;;3.80;1.70;;;;;;;24.04;32.20;99823.53;4993418;28;20030;-44
2023/12/07 04:46:35;;;;;;;3.35;1.60;;;;;;;24.05;32.30;99820.28;4996820;28;20026;-43
2023/12/07 04:49:00;;;;;;;3.40;1.50;;;;;;;24.05;32.16;99822.28;4997099;28;20499;-42
2023/12/07 04:51:26;;;;;;;3.40;1.70;;;;;;;24.05;32.19;99823.03;4993031;28;20023;-42
2023/12/07 04:53:51;;;;;;;4.60;1.67;;;;;;;24.07;32.12;99828.06;4994064;28;20038;-42
2023/12/07 04:56:16;;;;;;;3.28;1.60;;;;;;;24.10;32.21;99831.88;4985604;28;20030;-43
2023/12/07 04:58:42;;;;;;;4.10;1.55;;;;;;;24.14;32.13;99826.91;4993503;28;20131;-43
2023/12/07 05:01:07;;;;;;;3.75;1.67;;;;;;;24.10;32.28;99829.88;4983004;28;20023;-43
2023/12/07 05:03:33;;;;;;;2.88;1.48;;;;;;;24.10;32.15;99823.59;4987470;28;20014;-44
2023/12/07 05:05:58;;;;;;;3.13;1.60;;;;;;;24.10;32.38;99824.34;4992504;28;20085;-42
2023/12/07 05:08:23;;;;;;;2.72;1.40;;;;;;;24.11;32.60;99822.34;4986573;28;20035;-44
2023/12/07 05:10:49;;;;;;;4.72;1.50;;;;;;;24.12;32.41;99819.13;4993027;28;20027;-42
2023/12/07 05:13:14;;;;;;;3.50;1.60;;;;;;;24.11;32.35;99817.59;4990927;28;20033;-43
2023/12/07 05:15:39;;;;;;;3.15;1.40;;;;;;;24.12;32.36;99821.88;4990235;28;20033;-43
2023/12/07 05:18:05;;;;;;;3.20;1.52;;;;;;;24.14;32.41;99822.16;4987350;28;20042;-43
2023/12/07 05:20:30;;;;;;;3.58;1.50;;;;;;;24.14;32.34;99824.16;4990967;28;20019;-43
2023/12/07 05:22:56;;;;;;;3.10;1.42;;;;;;;24.16;32.37;99822.44;4991998;28;20474;-42
2023/12/07 05:25:21;;;;;;;3.40;1.60;;;;;;;24.21;32.29;99820.97;4989426;28;20023;-42
2023/12/07 05:27:47;;;;;;;3.55;1.52;;;;;;;24.21;32.41;99826.47;4984438;28;20451;-41
2023/12/07 05:30:12;;;;;;;3.05;1.48;;;;;;;24.20;32.39;99814.69;4986661;28;20031;-42
2023/12/07 05:32:38;;;;;;;4.18;1.60;;;;;;;24.23;32.41;99819.25;4989209;28;20045;-43
2023/12/07 05:35:04;;;;;;;4.13;1.50;;;;;;;24.26;32.42;99821.06;4992632;28;20537;-43
2023/12/07 05:37:29;;;;;;;5.10;1.52;;;;;;;24.28;32.38;99829.63;4991376;28;20030;-42
2023/12/07 05:39:54;;;;;;;5.40;1.40;;;;;;;24.30;32.39;99829.13;4991114;28;20036;-43
2023/12/07 05:42:20;;;;;;;3.38;1.40;;;;;;;24.34;32.42;99829.69;4988494;28;20033;-42
2023/12/07 05:44:45;;;;;;;3.95;1.52;;;;;;;24.33;32.33;99836.44;4994654;28;20041;-42
2023/12/07 05:47:11;;;;;;;2.92;1.50;;;;;;;24.36;32.41;99827.97;4997664;28;20466;-42
2023/12/07 05:49:36;;;;;;;4.80;1.63;;;;;;;24.35;32.44;99822.94;4996672;28;20077;-43
2023/12/07 05:52:02;;;;;;;4.30;1.40;;;;;;;24.38;32.54;99835.72;4991167;28;20034;-42
2023/12/07 05:54:28;;;;;;;8.48;1.92;;;;;;;24.46;32.48;99838.81;4993040;28;20080;-42
2023/12/07 05:56:53;;;;;;;4.43;1.63;;;;;;;24.42;32.65;99838.28;4991989;28;20691;-43
2023/12/07 05:59:18;;;;;;;8.73;1.60;;;;;;;24.51;32.48;99847.19;4995748;28;20019;-44
2023/12/07 06:01:44;;;;;;;7.78;1.83;;;;;;;24.55;32.93;99849.72;4996233;28;20034;-42
2023/12/07 06:04:10;;;;;;;6.30;1.77;;;;;;;24.54;33.50;99853.72;4993268;28;20573;-43
2023/12/07 06:06:35;;;;;;;5.13;1.77;;;;;;;24.48;33.15;99856.41;4964899;28;20026;-44
2023/12/07 06:09:01;;;;;;;5.32;1.58;;;;;;;24.45;33.37;99854.63;4994599;28;20368;-39
2023/12/07 06:11:26;;;;;;;6.68;1.85;;;;;;;24.33;33.39;99856.50;4996933;28;20022;-42
2023/12/07 06:13:51;;;;;;;6.95;1.70;;;;;;;24.21;34.23;99852.06;4999197;28;20018;-41
2023/12/07 06:16:18;;;;;;;6.20;1.70;;;;;;;24.20;33.79;99856.06;4989416;28;20026;-43
2023/12/07 06:18:43;;;;;;;4.80;1.60;;;;;;;24.12;33.92;99857.72;4992631;28;20039;-41
2023/12/07 06:21:09;;;;;;;4.47;1.83;;;;;;;24.06;33.92;99854.13;4988800;28;20041;-43
2023/12/07 06:23:35;;;;;;;4.50;1.60;;;;;;;24.04;33.37;99859.38;4994542;28;20029;-44
2023/12/07 06:26:01;;;;;;;4.75;1.70;;;;;;;24.03;33.65;99850.34;4988878;28;20040;-45
2023/12/07 06:28:27;;;;;;;4.60;1.60;;;;;;;24.04;33.29;99865.66;4988209;28;20026;-50
2023/12/07 06:30:52;;;;;;;4.85;1.83;;;;;;;24.01;33.10;99869.34;4985754;28;20526;-47
2023/12/07 06:33:18;;;;;;;5.28;1.90;;;;;;;24.01;32.96;99860.34;4991363;28;20094;-44
2023/12/07 06:35:43;;;;;;;4.40;1.65;;;;;;;24.01;33.07;99854.81;4994738;28;20544;-47
2023/12/07 06:38:09;;;;;;;3.97;1.77;;;;;;;24.05;33.08;99863.66;4989140;28;20037;-48
2023/12/07 06:40:34;;;;;;;3.80;1.88;;;;;;;24.04;32.74;99859.38;4990527;28;20076;-48
2023/12/07 06:42:59;;;;;;;6.40;2.00;;;;;;;24.03;32.69;99847.59;4985746;28;20035;-45
2023/12/07 06:45:25;;;;;;;4.47;1.90;;;;;;;24.01;32.84;99830.75;4987938;28;20027;-48
2023/12/07 06:47:51;;;;;;;5.53;2.08;;;;;;;24.06;32.19;99832.06;4997812;28;20042;-47
2023/12/07 06:50:16;;;;;;;4.55;1.90;;;;;;;24.05;32.28;99836.06;4991578;28;20089;-51
2023/12/07 06:52:42;;;;;;;4.55;1.88;;;;;;;24.05;32.17;99827.81;4989351;28;20484;-47
2023/12/07 06:55:10;;;;;;;4.35;2.05;;;;;;;24.04;32.36;99829.03;4985030;28;20044;-48
2023/12/07 06:57:35;;;;;;;6.40;2.00;;;;;;;24.02;32.32;99821.25;4986325;28;20034;-48
2023/12/07 07:00:05;;;;;;;4.00;1.80;;;;;;;24.00;32.12;99826.47;4991569;28;20385;-44
2023/12/07 07:02:30;;;;;;;4.70;2.00;;;;;;;24.02;32.04;99817.72;4992125;28;20081;-42
2023/12/07 07:04:56;;;;;;;4.97;2.00;;;;;;;24.02;32.08;99806.69;4994516;28;20473;-46
2023/12/07 07:07:21;;;;;;;4.20;1.85;;;;;;;24.03;31.79;99811.75;4989300;28;20114;-46
2023/12/07 07:09:47;;;;;;;4.45;1.90;;;;;;;24.01;31.57;99818.97;4988709;28;20036;-47
2023/12/07 07:12:12;;;;;;;4.30;1.80;;;;;;;24.04;31.62;99823.53;4992146;28;20027;-48
2023/12/07 07:14:38;;;;;;;3.80;1.90;;;;;;;24.00;31.34;99818.22;4994419;28;20637;-46
2023/12/07 07:17:04;;;;;;;3.78;1.92;;;;;;;24.01;31.30;99822.47;4991290;28;20027;-45
2023/12/07 07:19:29;;;;;;;4.72;2.15;;;;;;;23.88;30.36;99822.06;4990576;28;20085;-43
2023/12/07 07:21:55;;;;;;;4.93;2.03;;;;;;;23.84;30.83;99815.25;4987345;28;20041;-41
2023/12/07 07:24:20;;;;;;;3.97;1.90;;;;;;;23.88;30.91;99818.56;4991112;28;20049;-43
2023/12/07 07:26:45;;;;;;;7.95;2.22;;;;;;;23.80;31.12;99806.41;4996380;28;20027;-42
2023/12/07 07:29:11;;;;;;;10.52;2.60;;;;;;;23.92;31.11;99813.59;4997726;28;20389;-43
2023/12/07 07:31:36;;;;;;;8.45;2.40;;;;;;;23.93;31.34;99812.38;4992276;28;20022;-43
2023/12/07 07:34:02;;;;;;;5.40;2.00;;;;;;;23.84;30.89;99810.50;4987766;28;20039;-42
2023/12/07 07:36:27;;;;;;;4.18;2.00;;;;;;;23.80;31.10;99818.19;4993118;28;20538;-42
2023/12/07 07:38:52;;;;;;;5.05;1.90;;;;;;;23.75;31.03;99812.63;4988585;28;20366;-42
2023/12/07 07:41:18;;;;;;;6.22;1.95;;;;;;;23.69;31.03;99818.81;4991523;28;20037;-42
2023/12/07 07:43:43;;;;;;;4.65;2.10;;;;;;;23.69;31.05;99831.84;4990722;28;20018;-41
2023/12/07 07:46:08;;;;;;;4.60;2.03;;;;;;;23.67;31.04;99834.31;4987717;28;20413;-42
2023/12/07 07:48:34;;;;;;;4.18;2.00;;;;;;;23.66;31.00;99838.31;4992886;28;20034;-42
2023/12/07 07:50:59;;;;;;;4.90;2.20;;;;;;;23.63;30.96;99844.78;4989555;28;20033;-43
2023/12/07 07:53:24;;;;;;;3.97;2.00;;;;;;;23.62;30.98;99841.25;4990833;28;20379;-41
2023/12/07 07:55:50;;;;;;;4.05;1.98;;;;;;;23.58;30.93;99837.94;4990667;28;20026;-42
2023/12/07 07:58:15;;;;;;;4.13;1.90;;;;;;;23.56;30.99;99845.97;4986143;28;20032;-42
2023/12/07 08:00:40;;;;;;;5.20;1.85;;;;;;;23.54;31.02;99842.16;4989829;28;20076;-41
2023/12/07 08:03:06;;;;;;;4.90;2.00;;;;;;;23.52;30.92;99839.88;4992035;28;20030;-41
2023/12/07 08:05:33;;;;;;;5.97;2.30;;;;;;;23.53;30.91;99841.41;4992147;28;20498;-43
2023/12/07 08:07:58;;;;;;;4.57;2.35;;;;;;;23.49;30.87;99823.50;4992876;28;20030;-42
2023/12/07 08:10:24;;;;;;;4.13;1.88;;;;;;;23.46;31.12;99825.22;4984664;28;20124;-43
2023/12/07 08:12:49;;;;;;;4.10;2.10;;;;;;;23.45;30.97;99837.47;4990754;28;20028;-42
2023/12/07 08:15:14;;;;;;;4.03;2.10;;;;;;;23.45;31.00;99828.47;4992973;28;20048;-42
2023/12/07 08:17:40;;;;;;;5.22;2.30;;;;;;;23.45;30.63;99823.72;4997486;28;20030;-43
2023/12/07 08:20:06;;;;;;;4.40;2.25;;;;;;;23.45;30.93;99831.97;4993617;28;20037;-42
2023/12/07 08:22:32;;;;;;;12.07;2.40;;;;;;;23.50;30.83;99838.81;4990931;28;20022;-41
2023/12/07 08:24:58;;;;;;;8.43;2.45;;;;;;;23.43;30.89;99842.72;4989896;28;20027;-41
2023/12/07 08:27:23;;;;;;;6.82;2.60;;;;;;;23.45;30.77;99839.47;4992162;28;20105;-41
2023/12/07 08:29:48;;;;;;;4.78;2.53;;;;;;;23.44;30.80;99835.97;4995025;28;20030;-41
2023/12/07 08:32:15;;;;;;;7.93;2.60;;;;;;;23.42;30.78;99841.19;4992730;28;20040;-41
2023/12/07 08:34:40;;;;;;;4.82;2.38;;;;;;;23.40;30.74;99838.16;4987027;28;20033;-41
2023/12/07 08:37:06;;;;;;;6.10;2.65;;;;;;;23.34;30.43;99840.06;4991854;28;20035;-41
2023/12/07 08:39:31;;;;;;;5.55;3.08;;;;;;;23.07;30.03;99841.13;4993823;28;20032;-41
2023/12/07 08:41:57;;;;;;;5.22;2.67;;;;;;;23.21;30.51;99839.59;4997739;28;20034;-42
2023/12/07 08:44:22;;;;;;;5.57;2.72;;;;;;;23.24;30.25;99838.66;4990564;28;20033;-41
2023/12/07 08:46:47;;;;;;;7.05;3.20;;;;;;;23.32;30.47;99826.03;4985714;28;20101;-41
2023/12/07 08:49:13;;;;;;;4.90;2.72;;;;;;;23.33;30.07;99813.78;4992922;28;20022;-42
2023/12/07 08:51:39;;;;;;;5.30;3.15;;;;;;;23.34;30.24;99807.03;4996367;28;20027;-42
2023/12/07 08:54:05;;;;;;;5.60;3.15;;;;;;;23.36;30.13;99807.31;4993563;28;20479;-44
2023/12/07 08:56:30;;;;;;;5.95;2.97;;;;;;;23.37;30.33;99806.06;4987225;28;20505;-43
2023/12/07 08:58:56;;;;;;;5.53;3.05;;;;;;;23.32;30.27;99796.50;4985084;28;20025;-42
2023/12/07 09:01:21;;;;;;;7.55;3.53;;;;;;;23.31;30.57;99794.22;4984451;28;20400;-42
2023/12/07 09:03:46;;;;;;;7.82;3.70;;;;;;;23.41;30.50;99805.84;4995388;28;20056;-45
2023/12/07 09:06:12;;;;;;;5.60;3.63;;;;;;;23.32;30.66;99792.97;4991659;28;20034;-44
2023/12/07 09:08:38;;;;;;;5.95;3.85;;;;;;;23.28;30.64;99795.16;4985720;28;20066;-45
2023/12/07 09:11:04;;;;;;;6.57;3.88;;;;;;;23.29;30.38;99802.19;4982843;28;20049;-45
2023/12/07 09:13:29;;;;;;;6.60;4.00;;;;;;;23.28;30.64;99795.16;4983890;28;20030;-45
2023/12/07 09:15:54;;;;;;;5.68;3.90;;;;;;;23.32;30.52;99795.72;4993465;28;20049;-44
2023/12/07 09:18:20;;;;;;;6.93;4.35;;;;;;;23.28;30.26;99797.91;4995232;28;20486;-45
2023/12/07 09:20:45;;;;;;;7.28;4.00;;;;;;;23.29;30.60;99804.94;4993319;28;20041;-42
2023/12/07 09:23:12;;;;;;;6.25;4.32;;;;;;;23.30;30.45;99809.97;4987164;28;20064;-42
2023/12/07 09:25:38;;;;;;;6.18;4.20;;;;;;;23.38;30.51;99804.84;4988973;28;20029;-43
2023/12/07 09:28:04;;;;;;;5.90;3.80;;;;;;;23.45;30.26;99807.19;4993375;28;20117;-42
2023/12/07 09:30:29;;;;;;;6.68;4.25;;;;;;;23.39;30.30;99803.56;4995484;28;20026;-42
2023/12/07 09:32:54;;;;;;;7.07;4.22;;;;;;;23.40;30.15;99805.09;4995159;28;20023;-43
2023/12/07 09:35:20;;;;;;;6.82;4.45;;;;;;;23.37;30.20;99817.09;4988226;28;20030;-42
2023/12/07 09:37:46;;;;;;;7.30;4.15;;;;;;;23.38;29.87;99824.13;4987521;28;20034;-42
2023/12/07 09:40:16;;;;;;;6.63;3.67;;;;;;;23.14;29.80;99824.25;4993296;28;20037;-42
2023/12/07 09:42:42;;;;;;;6.22;3.67;;;;;;;23.01;30.18;99818.25;4990509;28;20050;-43
2023/12/07 09:45:08;;;;;;;5.85;3.20;;;;;;;22.97;30.28;99817.72;4998120;28;20519;-42
2023/12/07 09:47:34;;;;;;;5.82;3.78;;;;;;;22.96;30.47;99805.94;4991488;28;20114;-42
2023/12/07 09:49:59;;;;;;;5.60;3.40;;;;;;;23.03;30.11;99800.03;4991030;28;20030;-42
2023/12/07 09:52:25;;;;;;;5.93;3.58;;;;;;;23.11;30.02;99799.66;4992202;28;20494;-42
2023/12/07 09:54:50;;;;;;;6.07;3.78;;;;;;;23.17;30.12;99792.25;4995887;28;20021;-43
2023/12/07 09:57:15;;;;;;;6.20;3.55;;;;;;;23.24;29.97;99787.09;4999368;28;20040;-42
2023/12/07 09:59:41;;;;;;;5.80;3.63;;;;;;;23.26;29.96;99778.34;4993867;28;20486;-42
2023/12/07 10:02:07;;;;;;;5.50;3.85;;;;;;;23.22;29.72;99777.78;4990538;28;20033;-43
2023/12/07 10:04:32;;;;;;;5.75;3.75;;;;;;;23.21;29.93;99774.28;4991532;28;20030;-42
2023/12/07 10:06:58;;;;;;;5.55;3.90;;;;;;;23.26;29.98;99784.63;4995266;28;20026;-43
2023/12/07 10:09:24;;;;;;;6.55;3.72;;;;;;;23.31;30.09;99785.94;4996979;28;20032;-42
2023/12/07 10:11:49;;;;;;;7.45;4.00;;;;;;;23.32;30.13;99787.47;4997650;28;20035;-42
2023/12/07 10:14:14;;;;;;;6.43;3.95;;;;;;;23.32;30.01;99779.97;4993275;28;20029;-42
2023/12/07 10:16:52;;;;;;;5.40;3.70;;;;;;;23.37;30.01;99767.50;4992255;28;20478;-42
2023/12/07 10:19:21;;;;;;;6.00;3.92;;;;;;;23.37;30.07;99762.00;4992252;28;20029;-43
2023/12/07 10:21:50;;;;;;;6.00;4.18;;;;;;;23.38;30.12;99765.53;4988476;28;20033;-43
2023/12/07 10:24:16;;;;;;;6.40;4.20;;;;;;;23.42;30.05;99764.06;4992924;28;20014;-42
2023/12/07 10:26:41;;;;;;;7.60;4.45;;;;;;;23.45;30.19;99760.34;4984323;28;20022;-42
2023/12/07 10:29:06;;;;;;;5.90;4.13;;;;;;;23.44;30.34;99756.06;4993164;28;20498;-44
2023/12/07 10:31:32;;;;;;;5.72;4.07;;;;;;;23.46;30.47;99742.59;4993246;28;20026;-42
2023/12/07 10:34:01;;;;;;;5.88;4.07;;;;;;;23.51;30.59;99733.63;4993311;28;20691;-46
2023/12/07 10:36:26;;;;;;;8.48;4.68;;;;;;;23.51;30.72;99733.63;4990537;28;20489;-46
2023/12/07 10:38:52;;;;;;;8.52;4.22;;;;;;;23.49;30.91;99727.84;4986856;28;20108;-49
2023/12/07 10:41:18;;;;;;;6.75;4.20;;;;;;;23.54;30.90;99727.19;4992858;28;20022;-47
2023/12/07 10:43:46;;;;;;;7.45;4.20;;;;;;;23.59;30.85;99720.22;4996376;28;20019;-45
2023/12/07 10:46:15;;;;;;;6.63;4.30;;;;;;;23.58;30.88;99715.97;4993309;28;20065;-44
2023/12/07 10:48:41;;;;;;;7.65;4.40;;;;;;;23.61;30.78;99715.00;5007475;28;20572;-45
2023/12/07 10:51:09;;;;;;;7.28;4.30;;;;;;;23.62;30.66;99717.25;4973517;28;20026;-44
2023/12/07 10:53:40;;;;;;;7.57;4.00;;;;;;;23.60;30.63;99713.47;4994022;28;20288;-45
2023/12/07 10:56:07;;;;;;;6.97;4.20;;;;;;;23.64;30.64;99716.78;4992897;28;20113;-47
2023/12/07 10:58:34;;;;;;;5.90;4.07;;;;;;;23.64;30.59;99703.78;4977904;28;20104;-46
2023/12/07 11:01:00;;;;;;;6.57;4.35;;;;;;;23.65;30.52;99701.78;4975802;28;20022;-46
2023/12/07 11:03:26;;;;;;;6.13;4.30;;;;;;;23.66;30.59;99706.03;4976345;28;20018;-44
2023/12/07 11:05:51;;;;;;;6.35;4.07;;;;;;;23.64;30.38;99708.53;4977455;28;20544;-45
2023/12/07 11:08:37;;;;;;;6.75;4.25;;;;;;;23.59;30.34;99707.19;4995697;28;20022;-45
2023/12/07 11:11:10;;;;;;;5.67;3.80;;;;;;;23.61;30.47;99687.44;3950594;28;10001325;-45
2023/12/07 11:13:38;;;;;;;6.13;4.00;;;;;;;23.67;30.44;99678.00;4293412;28;10000472;-44
2023/12/07 11:16:04;;;;;;;6.22;4.05;;;;;;;23.69;30.34;99674.75;4993184;28;20026;-45
2023/12/07 11:18:29;;;;;;;5.90;3.63;;;;;;;23.74;30.38;99667.81;4987636;28;20493;-44
2023/12/07 11:20:55;;;;;;;5.80;3.80;;;;;;;23.74;30.39;99651.28;4989180;28;20088;-43
2023/12/07 11:23:20;;;;;;;7.15;5.40;;;;;;;23.72;30.44;99648.25;4985759;28;20061;-44
2023/12/07 11:25:47;;;;;;;12.98;10.30;;;;;;;23.82;30.35;99646.84;4984872;28;20027;-48